sensor_id;sensor_type;location;lat;lon;timestamp;P1;durP1;ratioP1;P2;durP2;ratioP2
14554;SDS011;7364;50.870;4.722;2023-12-04T00:00:54;8.70;;;5.13;;
14554;SDS011;7364;50.870;4.722;2023-12-04T00:03:21;10.57;;;6.00;;
14554;SDS011;7364;50.870;4.722;2023-12-04T00:05:50;9.47;;;5.93;;
14554;SDS011;7364;50.870;4.722;2023-12-04T00:08:17;11.20;;;5.93;;
14554;SDS011;7364;50.870;4.722;2023-12-04T00:10:44;10.00;;;5.37;;
14554;SDS011;7364;50.870;4.722;2023-12-04T00:13:11;8.30;;;5.13;;
14554;SDS011;7364;50.870;4.722;2023-12-04T00:15:38;9.27;;;5.57;;
14554;SDS011;7364;50.870;4.722;2023-12-04T00:18:06;10.03;;;5.77;;
14554;SDS011;7364;50.870;4.722;2023-12-04T00:20:33;9.77;;;5.43;;
14554;SDS011;7364;50.870;4.722;2023-12-04T00:23:02;11.47;;;5.23;;
14554;SDS011;7364;50.870;4.722;2023-12-04T00:25:29;12.90;;;5.37;;
14554;SDS011;7364;50.870;4.722;2023-12-04T00:27:57;8.37;;;5.10;;
14554;SDS011;7364;50.870;4.722;2023-12-04T00:30:24;8.17;;;5.17;;
14554;SDS011;7364;50.870;4.722;2023-12-04T00:32:51;10.87;;;5.83;;
14554;SDS011;7364;50.870;4.722;2023-12-04T00:35:18;8.60;;;5.47;;
14554;SDS011;7364;50.870;4.722;2023-12-04T00:37:45;11.30;;;5.23;;
14554;SDS011;7364;50.870;4.722;2023-12-04T00:40:14;7.50;;;4.43;;
14554;SDS011;7364;50.870;4.722;2023-12-04T00:42:41;7.80;;;4.97;;
14554;SDS011;7364;50.870;4.722;2023-12-04T00:45:09;10.40;;;5.87;;
14554;SDS011;7364;50.870;4.722;2023-12-04T00:47:36;6.90;;;4.83;;
14554;SDS011;7364;50.870;4.722;2023-12-04T00:50:04;6.93;;;5.07;;
14554;SDS011;7364;50.870;4.722;2023-12-04T00:52:31;9.97;;;5.70;;
14554;SDS011;7364;50.870;4.722;2023-12-04T00:54:58;10.47;;;5.13;;
14554;SDS011;7364;50.870;4.722;2023-12-04T00:57:28;8.23;;;4.80;;
14554;SDS011;7364;50.870;4.722;2023-12-04T00:59:55;7.60;;;5.17;;
14554;SDS011;7364;50.870;4.722;2023-12-04T01:02:23;8.17;;;5.37;;
14554;SDS011;7364;50.870;4.722;2023-12-04T01:04:50;9.37;;;6.00;;
14554;SDS011;7364;50.870;4.722;2023-12-04T01:07:19;10.07;;;5.30;;
14554;SDS011;7364;50.870;4.722;2023-12-04T01:09:46;10.90;;;6.57;;
14554;SDS011;7364;50.870;4.722;2023-12-04T01:12:13;10.37;;;5.83;;
14554;SDS011;7364;50.870;4.722;2023-12-04T01:14:42;10.73;;;5.97;;
14554;SDS011;7364;50.870;4.722;2023-12-04T01:17:09;7.60;;;4.63;;
14554;SDS011;7364;50.870;4.722;2023-12-04T01:19:36;8.20;;;6.07;;
14554;SDS011;7364;50.870;4.722;2023-12-04T01:22:04;9.20;;;5.47;;
14554;SDS011;7364;50.870;4.722;2023-12-04T01:24:31;10.20;;;5.57;;
14554;SDS011;7364;50.870;4.722;2023-12-04T01:26:58;9.27;;;5.40;;
14554;SDS011;7364;50.870;4.722;2023-12-04T01:29:26;8.13;;;5.40;;
14554;SDS011;7364;50.870;4.722;2023-12-04T01:31:54;7.63;;;5.03;;
14554;SDS011;7364;50.870;4.722;2023-12-04T01:34:20;6.00;;;4.23;;
14554;SDS011;7364;50.870;4.722;2023-12-04T01:36:48;10.47;;;5.67;;
14554;SDS011;7364;50.870;4.722;2023-12-04T01:39:15;10.50;;;5.47;;
14554;SDS011;7364;50.870;4.722;2023-12-04T01:41:42;8.03;;;5.20;;
14554;SDS011;7364;50.870;4.722;2023-12-04T01:44:09;6.77;;;4.90;;
14554;SDS011;7364;50.870;4.722;2023-12-04T01:46:36;9.83;;;5.33;;
14554;SDS011;7364;50.870;4.722;2023-12-04T01:49:05;8.03;;;4.87;;
14554;SDS011;7364;50.870;4.722;2023-12-04T01:51:32;8.50;;;5.00;;
14554;SDS011;7364;50.870;4.722;2023-12-04T01:54:00;8.77;;;5.60;;
14554;SDS011;7364;50.870;4.722;2023-12-04T01:56:30;9.00;;;5.53;;
14554;SDS011;7364;50.870;4.722;2023-12-04T01:58:57;9.63;;;5.63;;
14554;SDS011;7364;50.870;4.722;2023-12-04T02:01:25;11.20;;;6.07;;
14554;SDS011;7364;50.870;4.722;2023-12-04T02:03:53;8.87;;;5.97;;
14554;SDS011;7364;50.870;4.722;2023-12-04T02:06:24;11.33;;;6.10;;
14554;SDS011;7364;50.870;4.722;2023-12-04T02:08:51;8.73;;;5.60;;
14554;SDS011;7364;50.870;4.722;2023-12-04T02:11:18;8.50;;;5.47;;
14554;SDS011;7364;50.870;4.722;2023-12-04T02:13:45;9.27;;;6.50;;
14554;SDS011;7364;50.870;4.722;2023-12-04T02:16:13;8.77;;;5.53;;
14554;SDS011;7364;50.870;4.722;2023-12-04T02:18:44;9.67;;;5.63;;
14554;SDS011;7364;50.870;4.722;2023-12-04T02:21:11;8.37;;;5.60;;
14554;SDS011;7364;50.870;4.722;2023-12-04T02:23:39;8.60;;;6.03;;
14554;SDS011;7364;50.870;4.722;2023-12-04T02:26:10;11.80;;;7.57;;
14554;SDS011;7364;50.870;4.722;2023-12-04T02:28:42;10.20;;;5.63;;
14554;SDS011;7364;50.870;4.722;2023-12-04T02:31:15;10.10;;;5.73;;
14554;SDS011;7364;50.870;4.722;2023-12-04T02:33:44;8.13;;;6.37;;
14554;SDS011;7364;50.870;4.722;2023-12-04T02:36:13;9.87;;;6.00;;
14554;SDS011;7364;50.870;4.722;2023-12-04T02:38:41;8.80;;;6.07;;
14554;SDS011;7364;50.870;4.722;2023-12-04T02:41:10;9.87;;;5.87;;
14554;SDS011;7364;50.870;4.722;2023-12-04T02:43:37;8.23;;;5.57;;
14554;SDS011;7364;50.870;4.722;2023-12-04T02:46:05;10.00;;;5.80;;
14554;SDS011;7364;50.870;4.722;2023-12-04T02:48:32;10.80;;;6.63;;
14554;SDS011;7364;50.870;4.722;2023-12-04T02:50:59;7.87;;;6.00;;
14554;SDS011;7364;50.870;4.722;2023-12-04T02:53:27;11.43;;;6.00;;
14554;SDS011;7364;50.870;4.722;2023-12-04T02:55:54;10.17;;;5.40;;
14554;SDS011;7364;50.870;4.722;2023-12-04T02:58:22;15.43;;;7.03;;
14554;SDS011;7364;50.870;4.722;2023-12-04T03:00:49;9.57;;;6.03;;
14554;SDS011;7364;50.870;4.722;2023-12-04T03:03:17;8.77;;;5.60;;
14554;SDS011;7364;50.870;4.722;2023-12-04T03:05:44;7.63;;;5.97;;
14554;SDS011;7364;50.870;4.722;2023-12-04T03:08:11;7.73;;;5.27;;
14554;SDS011;7364;50.870;4.722;2023-12-04T03:10:38;7.57;;;5.33;;
14554;SDS011;7364;50.870;4.722;2023-12-04T03:13:06;10.43;;;6.50;;
14554;SDS011;7364;50.870;4.722;2023-12-04T03:15:34;6.97;;;4.67;;
14554;SDS011;7364;50.870;4.722;2023-12-04T03:18:01;8.67;;;5.40;;
14554;SDS011;7364;50.870;4.722;2023-12-04T03:20:29;8.27;;;5.17;;
14554;SDS011;7364;50.870;4.722;2023-12-04T03:22:58;6.93;;;5.13;;
14554;SDS011;7364;50.870;4.722;2023-12-04T03:25:26;9.00;;;5.50;;
14554;SDS011;7364;50.870;4.722;2023-12-04T03:27:53;9.40;;;5.60;;
14554;SDS011;7364;50.870;4.722;2023-12-04T03:30:20;9.30;;;4.67;;
14554;SDS011;7364;50.870;4.722;2023-12-04T03:32:49;7.57;;;5.67;;
14554;SDS011;7364;50.870;4.722;2023-12-04T03:35:16;9.87;;;5.70;;
14554;SDS011;7364;50.870;4.722;2023-12-04T03:37:43;8.50;;;4.87;;
14554;SDS011;7364;50.870;4.722;2023-12-04T03:40:10;8.83;;;4.97;;
14554;SDS011;7364;50.870;4.722;2023-12-04T03:42:38;8.10;;;5.77;;
14554;SDS011;7364;50.870;4.722;2023-12-04T03:45:06;8.47;;;5.87;;
14554;SDS011;7364;50.870;4.722;2023-12-04T03:47:34;9.90;;;4.93;;
14554;SDS011;7364;50.870;4.722;2023-12-04T03:50:03;9.73;;;5.43;;
14554;SDS011;7364;50.870;4.722;2023-12-04T03:52:30;11.20;;;4.90;;
14554;SDS011;7364;50.870;4.722;2023-12-04T03:54:58;7.63;;;4.73;;
14554;SDS011;7364;50.870;4.722;2023-12-04T03:57:25;8.67;;;5.27;;
14554;SDS011;7364;50.870;4.722;2023-12-04T03:59:52;6.47;;;4.60;;
14554;SDS011;7364;50.870;4.722;2023-12-04T04:02:20;9.47;;;5.00;;
14554;SDS011;7364;50.870;4.722;2023-12-04T04:04:50;7.03;;;5.10;;
14554;SDS011;7364;50.870;4.722;2023-12-04T04:07:19;7.97;;;5.00;;
14554;SDS011;7364;50.870;4.722;2023-12-04T04:09:46;6.23;;;4.83;;
14554;SDS011;7364;50.870;4.722;2023-12-04T04:12:13;8.60;;;4.93;;
14554;SDS011;7364;50.870;4.722;2023-12-04T04:14:41;7.37;;;4.20;;
14554;SDS011;7364;50.870;4.722;2023-12-04T04:17:09;11.77;;;5.90;;
14554;SDS011;7364;50.870;4.722;2023-12-04T04:19:36;5.67;;;3.90;;
14554;SDS011;7364;50.870;4.722;2023-12-04T04:22:06;6.97;;;4.57;;
14554;SDS011;7364;50.870;4.722;2023-12-04T04:24:34;7.43;;;4.47;;
14554;SDS011;7364;50.870;4.722;2023-12-04T04:27:01;8.30;;;4.70;;
14554;SDS011;7364;50.870;4.722;2023-12-04T04:29:29;7.80;;;5.17;;
14554;SDS011;7364;50.870;4.722;2023-12-04T04:31:56;7.50;;;4.73;;
14554;SDS011;7364;50.870;4.722;2023-12-04T04:34:23;8.13;;;4.73;;
14554;SDS011;7364;50.870;4.722;2023-12-04T04:36:50;8.03;;;4.90;;
14554;SDS011;7364;50.870;4.722;2023-12-04T04:39:17;8.60;;;5.27;;
14554;SDS011;7364;50.870;4.722;2023-12-04T04:41:46;11.27;;;4.93;;
14554;SDS011;7364;50.870;4.722;2023-12-04T04:44:13;8.30;;;4.63;;
14554;SDS011;7364;50.870;4.722;2023-12-04T04:46:40;6.37;;;4.10;;
14554;SDS011;7364;50.870;4.722;2023-12-04T04:49:07;6.20;;;4.43;;
14554;SDS011;7364;50.870;4.722;2023-12-04T04:51:35;6.17;;;4.47;;
14554;SDS011;7364;50.870;4.722;2023-12-04T04:54:02;5.83;;;4.00;;
14554;SDS011;7364;50.870;4.722;2023-12-04T04:56:29;6.30;;;4.60;;
14554;SDS011;7364;50.870;4.722;2023-12-04T04:58:58;5.68;;;3.90;;
14554;SDS011;7364;50.870;4.722;2023-12-04T05:01:25;6.93;;;4.43;;
14554;SDS011;7364;50.870;4.722;2023-12-04T05:03:52;5.87;;;3.90;;
14554;SDS011;7364;50.870;4.722;2023-12-04T05:06:20;6.53;;;3.83;;
14554;SDS011;7364;50.870;4.722;2023-12-04T05:08:47;5.93;;;4.17;;
14554;SDS011;7364;50.870;4.722;2023-12-04T05:11:15;7.83;;;4.40;;
14554;SDS011;7364;50.870;4.722;2023-12-04T05:13:44;5.20;;;3.67;;
14554;SDS011;7364;50.870;4.722;2023-12-04T05:16:12;7.17;;;3.97;;
14554;SDS011;7364;50.870;4.722;2023-12-04T05:18:40;9.50;;;4.10;;
14554;SDS011;7364;50.870;4.722;2023-12-04T05:21:08;7.60;;;3.77;;
14554;SDS011;7364;50.870;4.722;2023-12-04T05:23:35;5.37;;;3.27;;
14554;SDS011;7364;50.870;4.722;2023-12-04T05:26:03;8.73;;;4.10;;
14554;SDS011;7364;50.870;4.722;2023-12-04T05:28:32;5.97;;;3.87;;
14554;SDS011;7364;50.870;4.722;2023-12-04T05:30:59;5.93;;;3.70;;
14554;SDS011;7364;50.870;4.722;2023-12-04T05:33:28;5.57;;;3.43;;
14554;SDS011;7364;50.870;4.722;2023-12-04T05:35:55;5.27;;;3.53;;
14554;SDS011;7364;50.870;4.722;2023-12-04T05:38:22;4.30;;;3.43;;
14554;SDS011;7364;50.870;4.722;2023-12-04T05:40:50;6.80;;;3.63;;
14554;SDS011;7364;50.870;4.722;2023-12-04T05:43:19;6.50;;;3.80;;
14554;SDS011;7364;50.870;4.722;2023-12-04T05:45:46;5.20;;;3.17;;
14554;SDS011;7364;50.870;4.722;2023-12-04T05:48:14;6.97;;;3.53;;
14554;SDS011;7364;50.870;4.722;2023-12-04T05:50:42;5.23;;;3.40;;
14554;SDS011;7364;50.870;4.722;2023-12-04T05:53:09;7.10;;;3.90;;
14554;SDS011;7364;50.870;4.722;2023-12-04T05:55:37;8.13;;;3.97;;
14554;SDS011;7364;50.870;4.722;2023-12-04T05:58:04;8.90;;;3.70;;
14554;SDS011;7364;50.870;4.722;2023-12-04T06:00:32;4.33;;;3.17;;
14554;SDS011;7364;50.870;4.722;2023-12-04T06:02:59;6.43;;;4.00;;
14554;SDS011;7364;50.870;4.722;2023-12-04T06:05:26;5.57;;;4.23;;
14554;SDS011;7364;50.870;4.722;2023-12-04T06:07:54;6.07;;;3.37;;
14554;SDS011;7364;50.870;4.722;2023-12-04T06:10:23;8.00;;;4.13;;
14554;SDS011;7364;50.870;4.722;2023-12-04T06:12:50;4.90;;;3.57;;
14554;SDS011;7364;50.870;4.722;2023-12-04T06:15:17;5.50;;;3.73;;
14554;SDS011;7364;50.870;4.722;2023-12-04T06:17:44;5.20;;;3.67;;
14554;SDS011;7364;50.870;4.722;2023-12-04T06:20:11;6.60;;;4.43;;
14554;SDS011;7364;50.870;4.722;2023-12-04T06:22:39;5.37;;;4.03;;
14554;SDS011;7364;50.870;4.722;2023-12-04T06:25:08;6.80;;;3.90;;
14554;SDS011;7364;50.870;4.722;2023-12-04T06:27:36;5.23;;;4.23;;
14554;SDS011;7364;50.870;4.722;2023-12-04T06:30:05;5.87;;;3.63;;
14554;SDS011;7364;50.870;4.722;2023-12-04T06:32:33;7.43;;;3.67;;
14554;SDS011;7364;50.870;4.722;2023-12-04T06:35:01;7.40;;;4.00;;
14554;SDS011;7364;50.870;4.722;2023-12-04T06:37:28;6.27;;;3.53;;
14554;SDS011;7364;50.870;4.722;2023-12-04T06:39:56;6.97;;;3.70;;
14554;SDS011;7364;50.870;4.722;2023-12-04T06:42:28;5.20;;;3.57;;
14554;SDS011;7364;50.870;4.722;2023-12-04T06:44:56;6.70;;;4.13;;
14554;SDS011;7364;50.870;4.722;2023-12-04T06:47:24;5.53;;;3.60;;
14554;SDS011;7364;50.870;4.722;2023-12-04T06:49:51;6.07;;;3.97;;
14554;SDS011;7364;50.870;4.722;2023-12-04T06:52:18;9.90;;;4.33;;
14554;SDS011;7364;50.870;4.722;2023-12-04T06:54:45;7.37;;;3.90;;
14554;SDS011;7364;50.870;4.722;2023-12-04T06:57:12;6.37;;;3.83;;
14554;SDS011;7364;50.870;4.722;2023-12-04T06:59:41;5.83;;;4.33;;
14554;SDS011;7364;50.870;4.722;2023-12-04T07:02:08;4.73;;;4.00;;
14554;SDS011;7364;50.870;4.722;2023-12-04T07:04:36;6.77;;;3.97;;
14554;SDS011;7364;50.870;4.722;2023-12-04T07:07:04;6.40;;;4.70;;
14554;SDS011;7364;50.870;4.722;2023-12-04T07:09:31;5.57;;;4.07;;
14554;SDS011;7364;50.870;4.722;2023-12-04T07:11:59;6.93;;;5.10;;
14554;SDS011;7364;50.870;4.722;2023-12-04T07:14:29;5.03;;;4.10;;
14554;SDS011;7364;50.870;4.722;2023-12-04T07:16:58;6.43;;;3.97;;
14554;SDS011;7364;50.870;4.722;2023-12-04T07:19:25;6.97;;;4.27;;
14554;SDS011;7364;50.870;4.722;2023-12-04T07:21:52;6.23;;;3.77;;
14554;SDS011;7364;50.870;4.722;2023-12-04T07:24:20;6.17;;;4.53;;
14554;SDS011;7364;50.870;4.722;2023-12-04T07:26:47;8.60;;;4.40;;
14554;SDS011;7364;50.870;4.722;2023-12-04T07:29:15;7.73;;;4.17;;
14554;SDS011;7364;50.870;4.722;2023-12-04T07:31:42;5.80;;;4.47;;
14554;SDS011;7364;50.870;4.722;2023-12-04T07:34:11;8.07;;;4.77;;
14554;SDS011;7364;50.870;4.722;2023-12-04T07:36:38;6.63;;;4.00;;
14554;SDS011;7364;50.870;4.722;2023-12-04T07:39:05;7.67;;;4.30;;
14554;SDS011;7364;50.870;4.722;2023-12-04T07:41:32;7.80;;;4.83;;
14554;SDS011;7364;50.870;4.722;2023-12-04T07:43:59;7.63;;;4.47;;
14554;SDS011;7364;50.870;4.722;2023-12-04T07:46:27;5.70;;;3.70;;
14554;SDS011;7364;50.870;4.722;2023-12-04T07:48:54;7.23;;;5.10;;
14554;SDS011;7364;50.870;4.722;2023-12-04T07:51:22;5.43;;;4.23;;
14554;SDS011;7364;50.870;4.722;2023-12-04T07:53:50;6.03;;;3.83;;
14554;SDS011;7364;50.870;4.722;2023-12-04T07:56:17;6.77;;;4.00;;
14554;SDS011;7364;50.870;4.722;2023-12-04T07:58:44;7.07;;;4.23;;
14554;SDS011;7364;50.870;4.722;2023-12-04T08:01:11;6.57;;;4.30;;
14554;SDS011;7364;50.870;4.722;2023-12-04T08:03:39;5.67;;;4.07;;
14554;SDS011;7364;50.870;4.722;2023-12-04T08:06:06;6.43;;;4.47;;
14554;SDS011;7364;50.870;4.722;2023-12-04T08:08:35;7.67;;;4.30;;
14554;SDS011;7364;50.870;4.722;2023-12-04T08:11:02;6.23;;;4.10;;
14554;SDS011;7364;50.870;4.722;2023-12-04T08:13:30;8.07;;;4.70;;
14554;SDS011;7364;50.870;4.722;2023-12-04T08:15:57;6.67;;;4.13;;
14554;SDS011;7364;50.870;4.722;2023-12-04T08:18:25;5.60;;;4.23;;
14554;SDS011;7364;50.870;4.722;2023-12-04T08:20:53;6.00;;;4.23;;
14554;SDS011;7364;50.870;4.722;2023-12-04T08:23:20;11.00;;;5.00;;
14554;SDS011;7364;50.870;4.722;2023-12-04T08:25:48;6.77;;;3.87;;
14554;SDS011;7364;50.870;4.722;2023-12-04T08:28:15;6.27;;;4.57;;
14554;SDS011;7364;50.870;4.722;2023-12-04T08:30:42;7.93;;;4.60;;
14554;SDS011;7364;50.870;4.722;2023-12-04T08:33:10;8.07;;;4.00;;
14554;SDS011;7364;50.870;4.722;2023-12-04T08:35:37;7.87;;;4.63;;
14554;SDS011;7364;50.870;4.722;2023-12-04T08:38:05;7.27;;;4.07;;
14554;SDS011;7364;50.870;4.722;2023-12-04T08:40:32;7.00;;;4.70;;
14554;SDS011;7364;50.870;4.722;2023-12-04T08:43:00;8.87;;;4.93;;
14554;SDS011;7364;50.870;4.722;2023-12-04T08:45:29;7.57;;;4.10;;
14554;SDS011;7364;50.870;4.722;2023-12-04T08:47:56;9.93;;;5.53;;
14554;SDS011;7364;50.870;4.722;2023-12-04T08:50:23;7.57;;;4.57;;
14554;SDS011;7364;50.870;4.722;2023-12-04T08:52:50;9.43;;;4.70;;
14554;SDS011;7364;50.870;4.722;2023-12-04T08:55:17;8.17;;;5.07;;
14554;SDS011;7364;50.870;4.722;2023-12-04T08:57:45;7.63;;;4.60;;
14554;SDS011;7364;50.870;4.722;2023-12-04T09:00:14;9.53;;;5.30;;
14554;SDS011;7364;50.870;4.722;2023-12-04T09:02:42;7.00;;;5.10;;
14554;SDS011;7364;50.870;4.722;2023-12-04T09:05:09;6.77;;;5.03;;
14554;SDS011;7364;50.870;4.722;2023-12-04T09:07:36;8.57;;;5.77;;
14554;SDS011;7364;50.870;4.722;2023-12-04T09:10:03;5.63;;;3.77;;
14554;SDS011;7364;50.870;4.722;2023-12-04T09:12:31;6.43;;;4.17;;
14554;SDS011;7364;50.870;4.722;2023-12-04T09:15:00;5.90;;;4.90;;
14554;SDS011;7364;50.870;4.722;2023-12-04T09:17:29;9.13;;;5.20;;
14554;SDS011;7364;50.870;4.722;2023-12-04T09:19:56;7.03;;;4.83;;
14554;SDS011;7364;50.870;4.722;2023-12-04T09:22:24;7.80;;;4.30;;
14554;SDS011;7364;50.870;4.722;2023-12-04T09:24:51;8.57;;;4.77;;
14554;SDS011;7364;50.870;4.722;2023-12-04T09:27:18;7.70;;;5.73;;
14554;SDS011;7364;50.870;4.722;2023-12-04T09:29:46;7.83;;;4.70;;
14554;SDS011;7364;50.870;4.722;2023-12-04T09:32:14;11.70;;;5.23;;
14554;SDS011;7364;50.870;4.722;2023-12-04T09:34:42;6.83;;;4.97;;
14554;SDS011;7364;50.870;4.722;2023-12-04T09:37:09;6.60;;;4.60;;
14554;SDS011;7364;50.870;4.722;2023-12-04T09:39:37;7.60;;;4.50;;
14554;SDS011;7364;50.870;4.722;2023-12-04T09:42:04;6.30;;;4.57;;
14554;SDS011;7364;50.870;4.722;2023-12-04T09:44:32;8.50;;;4.80;;
14554;SDS011;7364;50.870;4.722;2023-12-04T09:47:02;8.23;;;5.07;;
14554;SDS011;7364;50.870;4.722;2023-12-04T09:49:31;6.70;;;4.80;;
14554;SDS011;7364;50.870;4.722;2023-12-04T09:52:00;8.97;;;5.03;;
14554;SDS011;7364;50.870;4.722;2023-12-04T09:54:28;8.70;;;5.33;;
14554;SDS011;7364;50.870;4.722;2023-12-04T09:56:56;9.70;;;5.70;;
14554;SDS011;7364;50.870;4.722;2023-12-04T09:59:25;7.80;;;4.97;;
14554;SDS011;7364;50.870;4.722;2023-12-04T10:01:52;11.23;;;5.60;;
14554;SDS011;7364;50.870;4.722;2023-12-04T10:04:20;7.43;;;5.17;;
14554;SDS011;7364;50.870;4.722;2023-12-04T10:06:47;7.97;;;5.67;;
14554;SDS011;7364;50.870;4.722;2023-12-04T10:09:19;10.70;;;5.67;;
14554;SDS011;7364;50.870;4.722;2023-12-04T10:11:47;8.20;;;5.57;;
14554;SDS011;7364;50.870;4.722;2023-12-04T10:14:17;11.57;;;5.27;;
14554;SDS011;7364;50.870;4.722;2023-12-04T10:16:46;8.33;;;4.93;;
14554;SDS011;7364;50.870;4.722;2023-12-04T10:19:18;6.27;;;4.90;;
14554;SDS011;7364;50.870;4.722;2023-12-04T10:21:47;9.03;;;5.73;;
14554;SDS011;7364;50.870;4.722;2023-12-04T10:24:33;13.73;;;6.33;;
14554;SDS011;7364;50.870;4.722;2023-12-04T10:27:02;7.87;;;4.67;;
14554;SDS011;7364;50.870;4.722;2023-12-04T10:29:41;6.87;;;5.07;;
14554;SDS011;7364;50.870;4.722;2023-12-04T10:32:09;7.53;;;5.70;;
14554;SDS011;7364;50.870;4.722;2023-12-04T10:34:36;7.40;;;5.23;;
14554;SDS011;7364;50.870;4.722;2023-12-04T10:37:04;7.87;;;5.27;;
14554;SDS011;7364;50.870;4.722;2023-12-04T10:39:33;9.10;;;5.80;;
14554;SDS011;7364;50.870;4.722;2023-12-04T10:42:23;10.60;;;6.10;;
14554;SDS011;7364;50.870;4.722;2023-12-04T10:44:51;10.60;;;6.17;;
14554;SDS011;7364;50.870;4.722;2023-12-04T10:47:22;9.20;;;6.03;;
14554;SDS011;7364;50.870;4.722;2023-12-04T10:49:50;9.57;;;6.37;;
14554;SDS011;7364;50.870;4.722;2023-12-04T10:52:18;8.10;;;5.97;;
14554;SDS011;7364;50.870;4.722;2023-12-04T10:54:48;17.13;;;6.23;;
14554;SDS011;7364;50.870;4.722;2023-12-04T10:57:16;10.30;;;6.50;;
14554;SDS011;7364;50.870;4.722;2023-12-04T10:59:48;10.10;;;6.27;;
14554;SDS011;7364;50.870;4.722;2023-12-04T11:02:24;8.90;;;6.60;;
14554;SDS011;7364;50.870;4.722;2023-12-04T11:04:54;9.77;;;6.80;;
14554;SDS011;7364;50.870;4.722;2023-12-04T11:07:25;9.17;;;6.23;;
14554;SDS011;7364;50.870;4.722;2023-12-04T11:09:55;8.80;;;6.30;;
14554;SDS011;7364;50.870;4.722;2023-12-04T11:12:25;9.50;;;6.50;;
14554;SDS011;7364;50.870;4.722;2023-12-04T11:14:56;11.87;;;6.87;;
14554;SDS011;7364;50.870;4.722;2023-12-04T11:17:28;8.20;;;6.03;;
14554;SDS011;7364;50.870;4.722;2023-12-04T11:20:02;11.07;;;7.37;;
14554;SDS011;7364;50.870;4.722;2023-12-04T11:22:37;13.27;;;6.97;;
14554;SDS011;7364;50.870;4.722;2023-12-04T11:25:07;9.87;;;7.43;;
14554;SDS011;7364;50.870;4.722;2023-12-04T11:27:36;10.77;;;6.93;;
14554;SDS011;7364;50.870;4.722;2023-12-04T11:30:04;8.53;;;6.70;;
14554;SDS011;7364;50.870;4.722;2023-12-04T11:32:38;11.13;;;7.47;;
14554;SDS011;7364;50.870;4.722;2023-12-04T11:35:12;11.77;;;7.43;;
14554;SDS011;7364;50.870;4.722;2023-12-04T11:37:41;8.40;;;6.97;;
14554;SDS011;7364;50.870;4.722;2023-12-04T11:40:12;11.97;;;6.63;;
14554;SDS011;7364;50.870;4.722;2023-12-04T11:42:41;9.17;;;7.73;;
14554;SDS011;7364;50.870;4.722;2023-12-04T11:45:11;9.10;;;7.27;;
14554;SDS011;7364;50.870;4.722;2023-12-04T11:47:49;10.50;;;7.13;;
14554;SDS011;7364;50.870;4.722;2023-12-04T11:50:20;8.90;;;6.37;;
14554;SDS011;7364;50.870;4.722;2023-12-04T11:52:49;9.87;;;6.60;;
14554;SDS011;7364;50.870;4.722;2023-12-04T11:55:20;15.27;;;7.37;;
14554;SDS011;7364;50.870;4.722;2023-12-04T11:57:48;9.13;;;6.60;;
14554;SDS011;7364;50.870;4.722;2023-12-04T12:00:20;11.27;;;6.90;;
14554;SDS011;7364;50.870;4.722;2023-12-04T12:03:01;11.13;;;6.43;;
14554;SDS011;7364;50.870;4.722;2023-12-04T12:05:32;8.43;;;6.67;;
14554;SDS011;7364;50.870;4.722;2023-12-04T12:08:00;11.17;;;7.50;;
14554;SDS011;7364;50.870;4.722;2023-12-04T12:10:30;11.17;;;7.03;;
14554;SDS011;7364;50.870;4.722;2023-12-04T12:12:59;12.00;;;7.40;;
14554;SDS011;7364;50.870;4.722;2023-12-04T12:15:26;11.00;;;6.30;;
14554;SDS011;7364;50.870;4.722;2023-12-04T12:17:54;11.03;;;7.63;;
14554;SDS011;7364;50.870;4.722;2023-12-04T12:20:21;13.50;;;6.20;;
14554;SDS011;7364;50.870;4.722;2023-12-04T12:22:49;8.57;;;6.37;;
14554;SDS011;7364;50.870;4.722;2023-12-04T12:25:16;8.67;;;6.93;;
14554;SDS011;7364;50.870;4.722;2023-12-04T12:27:46;9.43;;;5.67;;
14554;SDS011;7364;50.870;4.722;2023-12-04T12:30:13;12.17;;;6.47;;
14554;SDS011;7364;50.870;4.722;2023-12-04T12:32:40;7.43;;;5.80;;
14554;SDS011;7364;50.870;4.722;2023-12-04T12:35:08;8.80;;;6.67;;
14554;SDS011;7364;50.870;4.722;2023-12-04T12:37:38;8.83;;;6.37;;
14554;SDS011;7364;50.870;4.722;2023-12-04T12:40:06;7.00;;;4.87;;
14554;SDS011;7364;50.870;4.722;2023-12-04T12:42:35;9.87;;;5.80;;
14554;SDS011;7364;50.870;4.722;2023-12-04T12:45:08;9.63;;;6.27;;
14554;SDS011;7364;50.870;4.722;2023-12-04T12:47:37;10.17;;;6.30;;
14554;SDS011;7364;50.870;4.722;2023-12-04T12:50:07;7.50;;;5.90;;
14554;SDS011;7364;50.870;4.722;2023-12-04T12:52:37;10.60;;;6.23;;
14554;SDS011;7364;50.870;4.722;2023-12-04T12:55:04;9.00;;;5.77;;
14554;SDS011;7364;50.870;4.722;2023-12-04T12:57:32;6.60;;;5.47;;
14554;SDS011;7364;50.870;4.722;2023-12-04T12:59:59;7.67;;;5.80;;
14554;SDS011;7364;50.870;4.722;2023-12-04T13:02:28;8.53;;;5.03;;
14554;SDS011;7364;50.870;4.722;2023-12-04T13:05:00;7.17;;;5.17;;
14554;SDS011;7364;50.870;4.722;2023-12-04T13:07:27;9.60;;;6.43;;
14554;SDS011;7364;50.870;4.722;2023-12-04T13:09:54;9.97;;;5.93;;
14554;SDS011;7364;50.870;4.722;2023-12-04T13:12:21;6.70;;;5.30;;
14554;SDS011;7364;50.870;4.722;2023-12-04T13:14:49;8.90;;;5.77;;
14554;SDS011;7364;50.870;4.722;2023-12-04T13:17:16;6.97;;;5.37;;
14554;SDS011;7364;50.870;4.722;2023-12-04T13:19:45;8.97;;;6.13;;
14554;SDS011;7364;50.870;4.722;2023-12-04T13:22:12;7.40;;;5.50;;
14554;SDS011;7364;50.870;4.722;2023-12-04T13:24:40;5.80;;;4.93;;
14554;SDS011;7364;50.870;4.722;2023-12-04T13:27:07;9.70;;;5.50;;
14554;SDS011;7364;50.870;4.722;2023-12-04T13:29:34;12.17;;;5.47;;
14554;SDS011;7364;50.870;4.722;2023-12-04T13:32:01;7.67;;;5.43;;
14554;SDS011;7364;50.870;4.722;2023-12-04T13:34:30;9.47;;;5.37;;
14554;SDS011;7364;50.870;4.722;2023-12-04T13:36:58;8.57;;;5.70;;
14554;SDS011;7364;50.870;4.722;2023-12-04T13:39:25;8.43;;;5.10;;
14554;SDS011;7364;50.870;4.722;2023-12-04T13:42:12;8.13;;;4.60;;
14554;SDS011;7364;50.870;4.722;2023-12-04T13:44:56;7.50;;;5.23;;
14554;SDS011;7364;50.870;4.722;2023-12-04T13:47:23;7.40;;;4.47;;
14554;SDS011;7364;50.870;4.722;2023-12-04T13:49:51;5.70;;;4.43;;
14554;SDS011;7364;50.870;4.722;2023-12-04T13:52:20;6.80;;;4.10;;
14554;SDS011;7364;50.870;4.722;2023-12-04T13:54:48;6.37;;;4.87;;
14554;SDS011;7364;50.870;4.722;2023-12-04T13:57:18;7.47;;;4.87;;
14554;SDS011;7364;50.870;4.722;2023-12-04T13:59:47;10.73;;;5.53;;
14554;SDS011;7364;50.870;4.722;2023-12-04T14:02:14;6.97;;;5.13;;
14554;SDS011;7364;50.870;4.722;2023-12-04T14:04:42;9.20;;;5.13;;
14554;SDS011;7364;50.870;4.722;2023-12-04T14:07:09;6.40;;;4.80;;
14554;SDS011;7364;50.870;4.722;2023-12-04T14:09:39;7.37;;;4.93;;
14554;SDS011;7364;50.870;4.722;2023-12-04T14:12:06;7.63;;;5.03;;
14554;SDS011;7364;50.870;4.722;2023-12-04T14:14:34;8.83;;;5.20;;
14554;SDS011;7364;50.870;4.722;2023-12-04T14:17:02;15.43;;;5.80;;
14554;SDS011;7364;50.870;4.722;2023-12-04T14:19:30;6.53;;;4.70;;
14554;SDS011;7364;50.870;4.722;2023-12-04T14:21:58;7.37;;;5.13;;
14554;SDS011;7364;50.870;4.722;2023-12-04T14:24:28;8.50;;;6.03;;
14554;SDS011;7364;50.870;4.722;2023-12-04T14:26:56;7.77;;;6.10;;
14554;SDS011;7364;50.870;4.722;2023-12-04T14:29:24;7.17;;;5.80;;
14554;SDS011;7364;50.870;4.722;2023-12-04T14:31:51;14.43;;;7.10;;
14554;SDS011;7364;50.870;4.722;2023-12-04T14:34:18;11.70;;;6.47;;
14554;SDS011;7364;50.870;4.722;2023-12-04T14:36:45;7.07;;;5.90;;
14554;SDS011;7364;50.870;4.722;2023-12-04T14:39:12;7.83;;;5.53;;
14554;SDS011;7364;50.870;4.722;2023-12-04T14:41:41;8.40;;;5.73;;
14554;SDS011;7364;50.870;4.722;2023-12-04T14:44:10;6.40;;;5.13;;
14554;SDS011;7364;50.870;4.722;2023-12-04T14:46:37;8.93;;;5.50;;
14554;SDS011;7364;50.870;4.722;2023-12-04T14:49:04;10.63;;;6.33;;
14554;SDS011;7364;50.870;4.722;2023-12-04T14:51:31;10.90;;;6.10;;
14554;SDS011;7364;50.870;4.722;2023-12-04T14:53:58;8.13;;;5.73;;
14554;SDS011;7364;50.870;4.722;2023-12-04T14:56:40;8.03;;;5.93;;
14554;SDS011;7364;50.870;4.722;2023-12-04T14:59:35;17.67;;;7.67;;
14554;SDS011;7364;50.870;4.722;2023-12-04T15:02:20;9.63;;;5.67;;
14554;SDS011;7364;50.870;4.722;2023-12-04T15:05:01;9.03;;;5.23;;